Time;durP1;ratioP1;P1;durP2;ratioP2;P2;SDS_P1;SDS_P2;PMS_P1;PMS_P2;Temp;Humidity;BMP_temperature;BMP_pressure;BME280_temperature;BME280_humidity;BME280_pressure;Samples;Min_cycle;Max_cycle;Signal;HPM_P1;HPM_P2
2023/03/21 00:02:15;;;;;;;4.60;4.20;;;;;;;9.18;98.69;153717.13;5012136;28;20826;-84
2023/03/21 00:04:42;;;;;;;5.87;5.13;;;;;;;9.21;99.42;153724.88;5048377;28;20462;-84
2023/03/21 00:07:09;;;;;;;5.43;4.17;;;;;;;9.20;99.32;153722.28;5034487;28;20446;-84
2023/03/21 00:09:36;;;;;;;6.20;4.50;;;;;;;9.21;99.60;153724.88;5044937;28;20424;-84
2023/03/21 00:12:08;;;;;;;5.00;4.50;;;;;;;9.18;99.27;153718.41;5043490;28;20553;-84
2023/03/21 00:14:36;;;;;;;6.00;4.20;;;;;;;9.16;99.89;153713.22;5031009;28;20934;-84
2023/03/21 00:17:03;;;;;;;4.73;4.20;;;;;;;9.16;100.00;153711.91;5037979;28;20478;-84
2023/03/21 00:19:30;;;;;;;4.87;4.37;;;;;;;9.15;100.00;153709.34;5031168;28;20466;-84
2023/03/21 00:21:58;;;;;;;5.10;4.60;;;;;;;9.14;100.00;153706.75;5043917;28;20933;-84
2023/03/21 00:24:24;;;;;;;5.00;4.50;;;;;;;9.12;100.00;153702.88;5044875;28;20447;-84
2023/03/21 00:26:51;;;;;;;5.33;4.80;;;;;;;9.14;100.00;153706.75;5025634;28;20525;-84
2023/03/21 00:29:20;;;;;;;7.40;5.20;;;;;;;9.09;100.00;153695.13;5030979;28;20446;-83
2023/03/21 00:31:46;;;;;;;5.50;5.00;;;;;;;9.08;100.00;153692.50;5021905;28;21260;-83
2023/03/21 00:34:13;;;;;;;5.27;4.77;;;;;;;9.11;100.00;153698.97;5047528;28;20455;-83
2023/03/21 00:36:40;;;;;;;5.23;4.73;;;;;;;9.13;100.00;153704.19;5038369;28;20447;-83
2023/03/21 00:39:07;;;;;;;5.33;4.67;;;;;;;9.18;100.00;153717.13;5024914;28;20478;-84
2023/03/21 00:41:33;;;;;;;4.83;4.33;;;;;;;9.16;100.00;153711.91;5025345;28;20458;-83
2023/03/21 00:44:00;;;;;;;4.70;4.30;;;;;;;9.12;100.00;153702.88;5048812;28;20446;-84
2023/03/21 00:46:29;;;;;;;4.60;4.10;;;;;;;9.10;100.00;153696.41;5036405;28;20459;-84
2023/03/21 00:48:55;;;;;;;6.17;5.30;;;;;;;9.12;100.00;153701.59;5046977;28;20870;-84
2023/03/21 00:51:25;;;;;;;5.03;4.53;;;;;;;9.08;100.00;153691.25;5057230;28;21050;-83
2023/03/21 00:53:53;;;;;;;6.53;4.40;;;;;;;9.08;100.00;153691.25;5054205;28;20434;-85
2023/03/21 00:56:20;;;;;;;5.10;4.60;;;;;;;9.07;100.00;153688.66;5028417;28;20458;-85
2023/03/21 00:58:49;;;;;;;5.37;4.10;;;;;;;9.05;100.00;153684.75;5047340;28;20519;-85
2023/03/21 01:01:16;;;;;;;5.33;4.83;;;;;;;9.08;100.00;153691.25;5052868;28;20454;-85
2023/03/21 01:03:49;;;;;;;5.07;4.57;;;;;;;9.04;99.04;153680.88;5011827;28;20912;-85
2023/03/21 01:06:19;;;;;;;4.57;4.10;;;;;;;9.09;99.61;153693.81;5012996;28;20510;-85
2023/03/21 01:08:46;;;;;;;4.27;3.87;;;;;;;9.06;98.62;153687.34;5054785;28;20469;-85
2023/03/21 01:11:15;;;;;;;4.87;4.43;;;;;;;9.04;97.22;153682.19;5013297;28;20453;-85
2023/03/21 01:13:45;;;;;;;4.40;4.00;;;;;;;9.08;98.02;153692.50;5042538;28;20521;-85
2023/03/21 01:16:12;;;;;;;4.40;3.93;;;;;;;9.12;99.30;153702.88;5035885;28;20478;-85
2023/03/21 01:18:40;;;;;;;4.03;3.63;;;;;;;9.13;99.99;153704.19;5035296;28;20483;-85
2023/03/21 01:21:10;;;;;;;3.60;3.20;;;;;;;9.10;99.40;153697.72;5026255;28;20471;-85
2023/03/21 01:23:38;;;;;;;5.93;4.43;;;;;;;9.10;98.89;153696.41;5045546;28;20538;-85
2023/03/21 01:26:07;;;;;;;4.63;4.13;;;;;;;9.18;100.00;153717.13;5058205;28;20491;-85
2023/03/21 01:28:34;;;;;;;4.53;4.13;;;;;;;9.22;100.00;153727.44;5031244;28;20456;-85
2023/03/21 01:31:02;;;;;;;4.57;4.10;;;;;;;9.16;100.00;153711.91;5043717;28;20927;-85
2023/03/21 01:33:30;;;;;;;5.17;4.60;;;;;;;9.12;100.00;153701.59;5036335;28;20591;-85
2023/03/21 01:35:57;;;;;;;4.13;3.53;;;;;;;9.15;100.00;153710.66;5020384;28;20490;-84
2023/03/21 01:38:28;;;;;;;4.30;3.90;;;;;;;9.10;100.00;153697.72;5030805;28;20499;-85
2023/03/21 01:40:55;;;;;;;3.90;3.30;;;;;;;9.05;99.58;153684.75;5051563;28;20471;-84
2023/03/21 01:43:28;;;;;;;4.77;4.33;;;;;;;9.10;98.88;153697.72;5041089;28;20454;-84
2023/03/21 01:46:32;;;;;;;3.57;3.27;;;;;;;9.18;99.18;153717.13;5025006;28;21059;-85
2023/03/21 01:49:33;;;;;;;3.93;3.27;;;;;;;9.16;99.17;153711.91;5034643;28;20806;-85
2023/03/21 01:52:11;;;;;;;4.30;3.87;;;;;;;9.21;100.00;153724.88;5035573;28;20466;-85
2023/03/21 01:54:41;;;;;;;3.93;3.53;;;;;;;9.22;100.00;153726.13;5011859;28;20489;-85
2023/03/21 01:57:10;;;;;;;4.20;3.80;;;;;;;9.20;100.00;153722.28;5024768;28;20463;-85
2023/03/21 01:59:40;;;;;;;3.57;3.03;;;;;;;9.09;100.00;153693.81;5031536;28;20475;-85
2023/03/21 02:02:27;;;;;;;4.50;4.10;;;;;;;9.07;100.00;153688.66;5061882;28;20442;-85
2023/03/21 02:05:10;;;;;;;4.60;4.07;;;;;;;9.04;100.00;153680.88;5031668;28;20470;-85
2023/03/21 02:07:40;;;;;;;4.20;3.80;;;;;;;9.01;100.00;153673.13;5009760;28;20829;-85
2023/03/21 02:10:12;;;;;;;4.33;3.93;;;;;;;9.00;100.00;153671.81;5008155;28;20439;-84
2023/03/21 02:12:43;;;;;;;4.67;4.10;;;;;;;9.00;100.00;153671.81;5020846;28;20464;-85
2023/03/21 02:15:11;;;;;;;3.87;3.50;;;;;;;8.98;100.00;153665.34;5035150;28;21005;-85
2023/03/21 02:17:54;;;;;;;5.30;4.27;;;;;;;8.98;100.00;153665.34;5021717;28;20469;-85
2023/03/21 02:21:02;;;;;;;4.80;4.30;;;;;;;8.99;100.00;153667.97;5011539;28;20478;-85
2023/03/21 02:24:10;;;;;;;4.17;3.60;;;;;;;8.98;100.00;153665.34;5017472;28;20471;-84
2023/03/21 02:26:49;;;;;;;4.10;3.70;;;;;;;8.97;100.00;153662.81;4985303;28;20458;-84
2023/03/21 02:29:31;;;;;;;4.43;3.93;;;;;;;8.96;100.00;153660.19;5038342;28;20442;-84
2023/03/21 02:32:08;;;;;;;3.60;3.20;;;;;;;8.94;100.00;153655.03;5019267;28;21061;-84
2023/03/21 02:34:47;;;;;;;4.33;3.70;;;;;;;8.94;100.00;153655.03;5017746;28;20459;-84
2023/03/21 02:37:21;;;;;;;4.00;3.63;;;;;;;8.94;100.00;153655.03;5035300;28;20455;-84
2023/03/21 02:40:08;;;;;;;5.07;4.20;;;;;;;8.93;100.00;153652.44;5022298;28;20467;-84
2023/03/21 02:42:44;;;;;;;4.33;3.93;;;;;;;8.91;100.00;153648.56;5024569;28;20439;-84
2023/03/21 02:45:16;;;;;;;4.70;4.30;;;;;;;8.88;100.00;153640.81;5005041;28;20452;-83
2023/03/21 02:47:51;;;;;;;4.83;4.20;;;;;;;8.93;100.00;153652.44;5033813;28;20496;-84
2023/03/21 02:50:22;;;;;;;6.70;4.60;;;;;;;8.89;100.00;153643.41;5021226;28;20482;-84
2023/03/21 02:52:52;;;;;;;5.00;4.50;;;;;;;8.86;100.00;153635.66;5050350;28;20439;-84
2023/03/21 02:55:22;;;;;;;5.70;4.33;;;;;;;8.87;100.00;153636.94;5025904;28;20450;-84
2023/03/21 02:57:56;;;;;;;5.10;4.60;;;;;;;8.89;100.00;153643.41;5025142;28;20459;-83
2023/03/21 03:00:26;;;;;;;4.80;4.10;;;;;;;8.87;100.00;153638.22;5014723;28;20484;-84
2023/03/21 03:02:54;;;;;;;4.80;3.80;;;;;;;8.82;100.00;153623.97;5047200;28;20456;-84
2023/03/21 03:05:23;;;;;;;6.90;4.93;;;;;;;8.79;100.00;153616.25;5052208;28;20865;-83
2023/03/21 03:08:05;;;;;;;4.80;4.00;;;;;;;8.80;100.00;153618.81;5033595;28;21344;-83
2023/03/21 03:10:39;;;;;;;4.43;4.00;;;;;;;8.79;100.00;153616.25;5020468;28;20420;-84
2023/03/21 03:13:15;;;;;;;4.80;4.23;;;;;;;8.81;100.00;153621.41;5035209;28;20839;-84
2023/03/21 03:15:51;;;;;;;4.80;4.03;;;;;;;8.78;100.00;153613.66;5019432;28;20548;-84
2023/03/21 03:18:21;;;;;;;4.87;4.23;;;;;;;8.76;100.00;153608.50;5030488;28;20463;-84
2023/03/21 03:20:53;;;;;;;5.27;4.70;;;;;;;8.73;100.00;153600.72;5006679;28;20836;-84
2023/03/21 03:23:27;;;;;;;4.90;4.10;;;;;;;8.75;100.00;153605.91;5032769;28;21012;-84
2023/03/21 03:25:57;;;;;;;4.20;3.80;;;;;;;8.72;100.00;153599.44;5020675;28;20444;-84
2023/03/21 03:28:26;;;;;;;5.80;4.60;;;;;;;8.72;100.00;153598.13;5020150;28;20826;-83
2023/03/21 03:30:54;;;;;;;5.07;4.57;;;;;;;8.68;100.00;153589.13;5030894;28;20440;-84
2023/03/21 03:33:25;;;;;;;4.97;4.10;;;;;;;8.68;100.00;153589.13;5040631;28;20818;-84
2023/03/21 03:35:54;;;;;;;5.47;4.97;;;;;;;8.68;100.00;153587.81;5052893;28;20466;-84
2023/03/21 03:38:24;;;;;;;5.43;4.93;;;;;;;8.69;100.00;153591.66;5023441;28;20449;-83
2023/03/21 03:40:54;;;;;;;4.97;4.47;;;;;;;8.64;100.00;153578.75;5050282;28;21060;-84
2023/03/21 03:43:47;;;;;;;4.60;4.13;;;;;;;8.60;100.00;153567.13;5015421;28;20444;-84
2023/03/21 03:46:18;;;;;;;5.40;4.83;;;;;;;8.58;100.00;153564.53;5045800;28;20448;-84
2023/03/21 03:48:49;;;;;;;5.73;4.90;;;;;;;8.61;100.00;153570.97;5028438;28;20527;-84
2023/03/21 03:51:18;;;;;;;5.10;4.33;;;;;;;8.61;100.00;153570.97;5053325;28;20435;-84
2023/03/21 03:54:06;;;;;;;5.00;4.50;;;;;;;8.58;100.00;153564.53;5011788;28;20601;-84
2023/03/21 03:56:33;;;;;;;5.17;4.67;;;;;;;8.56;100.00;153558.06;5063133;28;20462;-83
2023/03/21 03:59:03;;;;;;;9.40;5.10;;;;;;;8.57;100.00;153561.97;5041565;28;20632;-84
2023/03/21 04:01:45;;;;;;;6.60;5.10;;;;;;;8.57;100.00;153561.97;5025993;28;20811;-83
2023/03/21 04:04:15;;;;;;;5.40;4.90;;;;;;;8.55;100.00;153556.75;5034722;28;20453;-83
2023/03/21 04:06:44;;;;;;;4.73;4.33;;;;;;;8.53;100.00;153551.59;5040958;28;20529;-83
2023/03/21 04:09:14;;;;;;;5.10;4.60;;;;;;;8.53;100.00;153551.59;5023372;28;20436;-83
2023/03/21 04:11:40;;;;;;;5.30;4.53;;;;;;;8.51;100.00;153545.13;5034179;28;20448;-83
2023/03/21 04:14:07;;;;;;;5.27;3.97;;;;;;;8.52;100.00;153547.75;5050175;28;20526;-83
2023/03/21 04:16:34;;;;;;;5.33;4.83;;;;;;;8.52;100.00;153549.00;5031127;28;20458;-83
2023/03/21 04:19:00;;;;;;;6.10;4.80;;;;;;;8.52;100.00;153549.00;5038286;28;20439;-83
2023/03/21 04:21:28;;;;;;;5.43;4.83;;;;;;;8.51;100.00;153546.44;5032856;28;20633;-83
2023/03/21 04:23:56;;;;;;;4.60;4.20;;;;;;;8.52;100.00;153549.00;5032214;28;20458;-83
2023/03/21 04:26:24;;;;;;;5.47;4.97;;;;;;;8.50;100.00;153543.84;5050385;28;20457;-83
2023/03/21 04:29:13;;;;;;;5.50;4.20;;;;;;;8.49;100.00;153541.28;5041011;28;20455;-83
2023/03/21 04:32:03;;;;;;;4.73;4.23;;;;;;;8.47;100.00;153536.06;5033694;28;20475;-83
2023/03/21 04:34:30;;;;;;;5.50;5.00;;;;;;;8.45;100.00;153530.91;5015305;28;20480;-83
2023/03/21 04:36:59;;;;;;;5.50;4.60;;;;;;;8.41;100.00;153519.28;5016751;28;20961;-84
2023/03/21 04:39:27;;;;;;;4.80;4.30;;;;;;;8.40;100.00;153518.00;5016450;28;20452;-83
2023/03/21 04:41:55;;;;;;;5.37;3.90;;;;;;;8.39;100.00;153515.38;5034961;28;20485;-83
2023/03/21 04:44:22;;;;;;;5.00;4.50;;;;;;;8.41;100.00;153519.28;5029844;28;20473;-83
2023/03/21 04:46:50;;;;;;;5.30;4.47;;;;;;;8.34;100.00;153502.47;5025124;28;20479;-83
2023/03/21 04:49:17;;;;;;;6.70;4.57;;;;;;;8.31;100.00;153494.72;5026831;28;20448;-84
2023/03/21 04:51:45;;;;;;;4.53;4.10;;;;;;;8.24;100.00;153476.59;5034011;28;20470;-83
2023/03/21 04:54:12;;;;;;;5.57;4.50;;;;;;;8.21;100.00;153468.81;5017485;28;20438;-83
2023/03/21 04:56:39;;;;;;;5.33;4.27;;;;;;;8.15;100.00;153453.34;5046308;28;20459;-83
2023/03/21 04:59:10;;;;;;;5.43;4.50;;;;;;;8.15;100.00;153453.34;5017313;28;20830;-83
2023/03/21 05:01:37;;;;;;;5.30;4.80;;;;;;;8.10;100.00;153439.13;5016897;28;20970;-83
2023/03/21 05:04:04;;;;;;;6.00;4.60;;;;;;;8.09;100.00;153437.81;5045351;28;20455;-83
2023/03/21 05:06:33;;;;;;;4.63;4.10;;;;;;;8.07;100.00;153432.66;5026132;28;20523;-83
2023/03/21 05:09:04;;;;;;;4.60;4.20;;;;;;;8.06;100.00;153430.06;5065171;28;20496;-83
2023/03/21 05:11:34;;;;;;;4.97;4.47;;;;;;;8.09;100.00;153437.81;5042933;28;20429;-84
2023/03/21 05:14:03;;;;;;;5.63;4.50;;;;;;;8.04;100.00;153423.63;5056532;28;20434;-83
2023/03/21 05:16:33;;;;;;;5.87;5.27;;;;;;;8.05;100.00;153427.47;5016126;28;20453;-84
2023/03/21 05:19:02;;;;;;;5.30;4.80;;;;;;;8.08;100.00;153433.94;5034544;28;20844;-83
2023/03/21 05:21:32;;;;;;;5.47;4.80;;;;;;;8.05;100.00;153426.22;5050157;28;20493;-83
2023/03/21 05:24:02;;;;;;;4.67;4.03;;;;;;;8.04;100.00;153424.91;5015934;28;20436;-83
2023/03/21 05:26:30;;;;;;;5.80;3.80;;;;;;;8.02;100.00;153418.44;5031231;28;21021;-83
2023/03/21 05:29:08;;;;;;;5.33;4.63;;;;;;;8.04;100.00;153424.91;5035951;28;20427;-83
2023/03/21 05:31:36;;;;;;;6.53;5.20;;;;;;;8.05;100.00;153427.47;5031431;28;20784;-82
2023/03/21 05:34:08;;;;;;;5.90;4.60;;;;;;;8.06;100.00;153430.06;5013013;28;20779;-83
2023/03/21 05:36:36;;;;;;;5.00;4.50;;;;;;;8.03;100.00;153422.31;5049754;28;20440;-84
2023/03/21 05:39:06;;;;;;;5.57;5.07;;;;;;;8.05;100.00;153427.47;5035880;28;20431;-83
2023/03/21 05:41:36;;;;;;;5.83;5.10;;;;;;;8.07;100.00;153431.38;5040897;28;20868;-83
2023/03/21 05:44:05;;;;;;;4.90;4.33;;;;;;;8.04;100.00;153424.91;5053053;28;20441;-83
2023/03/21 05:46:31;;;;;;;5.30;4.80;;;;;;;8.06;100.00;153428.75;5046168;28;20900;-83
2023/03/21 05:49:00;;;;;;;6.37;4.40;;;;;;;8.04;100.00;153423.63;5018816;28;20506;-83
2023/03/21 05:51:26;;;;;;;5.50;4.57;;;;;;;8.05;100.00;153427.47;5050622;28;20432;-83
2023/03/21 05:53:53;;;;;;;6.60;5.60;;;;;;;8.08;100.00;153435.22;5021339;28;20436;-83
2023/03/21 05:56:21;;;;;;;6.63;5.13;;;;;;;8.08;100.00;153433.94;5038750;28;20437;-83
2023/03/21 05:58:58;;;;;;;5.00;4.37;;;;;;;8.10;100.00;153440.38;5032934;28;20951;-83
2023/03/21 06:01:25;;;;;;;4.87;4.17;;;;;;;8.17;100.00;153458.50;5021550;28;20466;-83
2023/03/21 06:04:10;;;;;;;5.43;4.83;;;;;;;8.17;100.00;153458.50;5018187;28;20442;-83
2023/03/21 06:06:36;;;;;;;5.77;4.40;;;;;;;8.19;100.00;153463.66;5038985;28;20459;-83
2023/03/21 06:09:05;;;;;;;8.80;5.00;;;;;;;8.24;100.00;153475.28;5015712;28;20451;-83
2023/03/21 06:11:33;;;;;;;5.20;4.70;;;;;;;8.22;100.00;153471.44;5039110;28;20475;-83
2023/03/21 06:14:21;;;;;;;6.00;4.97;;;;;;;8.26;100.00;153481.75;5050159;28;20459;-83
2023/03/21 06:17:08;;;;;;;6.23;5.40;;;;;;;8.23;100.00;153472.72;5031108;28;20479;-83
2023/03/21 06:19:42;;;;;;;5.80;5.30;;;;;;;8.25;100.00;153479.19;5010494;28;20448;-84
2023/03/21 06:22:16;;;;;;;5.70;5.20;;;;;;;8.24;100.00;153476.59;5032311;28;20496;-84
2023/03/21 06:24:42;;;;;;;6.33;4.73;;;;;;;8.26;100.00;153481.75;5030039;28;20447;-84
2023/03/21 06:27:09;;;;;;;5.30;4.80;;;;;;;8.29;100.00;153489.56;5050993;28;20533;-83
2023/03/21 06:29:49;;;;;;;5.70;5.10;;;;;;;8.34;100.00;153501.22;5032040;28;20435;-83
2023/03/21 06:32:16;;;;;;;5.13;4.60;;;;;;;8.35;100.00;153505.06;5022119;28;20486;-84
2023/03/21 06:34:46;;;;;;;5.77;4.70;;;;;;;8.37;100.00;153508.94;5025553;28;20443;-83
2023/03/21 06:37:15;;;;;;;5.67;4.90;;;;;;;8.41;100.00;153520.59;5031530;28;20463;-83
2023/03/21 06:39:42;;;;;;;6.50;4.93;;;;;;;8.44;100.00;153528.34;5046994;28;20509;-83
2023/03/21 06:42:10;;;;;;;5.47;4.80;;;;;;;8.44;100.00;153527.06;5014013;28;20907;-83
2023/03/21 06:44:37;;;;;;;4.90;4.00;;;;;;;8.46;100.00;153532.22;5038195;28;20436;-83
2023/03/21 06:47:07;;;;;;;5.23;4.70;;;;;;;8.54;100.00;153554.19;5030034;28;20459;-83
2023/03/21 06:49:34;;;;;;;5.90;4.37;;;;;;;8.62;100.00;153572.28;5031790;28;20534;-83
2023/03/21 06:52:08;;;;;;;5.47;4.30;;;;;;;8.61;100.00;153569.69;5031286;28;20842;-83
2023/03/21 06:54:36;;;;;;;5.20;4.70;;;;;;;8.70;100.00;153592.97;5014193;28;20807;-83
2023/03/21 06:57:10;;;;;;;5.90;5.23;;;;;;;8.78;100.00;153614.97;5015209;28;20462;-84
2023/03/21 06:59:40;;;;;;;4.83;4.43;;;;;;;8.94;100.00;153656.34;5010588;28;20963;-83
2023/03/21 07:02:10;;;;;;;4.93;4.23;;;;;;;9.19;100.00;153719.69;5013367;28;20479;-84
2023/03/21 07:04:41;;;;;;;5.47;4.90;;;;;;;9.48;100.00;153794.69;5036184;28;20462;-83
2023/03/21 07:07:15;;;;;;;6.37;4.57;;;;;;;9.78;100.00;153871.03;5032610;28;20459;-84
2023/03/21 07:09:41;;;;;;;5.27;4.37;;;;;;;10.08;98.77;153947.41;5030153;28;20455;-83
2023/03/21 07:12:09;;;;;;;6.50;4.90;;;;;;;10.31;97.01;154007.00;5013538;28;20457;-84
2023/03/21 07:15:03;;;;;;;5.67;4.83;;;;;;;10.40;96.03;154030.31;5013977;28;20537;-83
2023/03/21 07:17:30;;;;;;;4.40;3.77;;;;;;;10.49;95.70;154053.59;5029531;28;20454;-84
2023/03/21 07:19:57;;;;;;;4.73;4.23;;;;;;;10.62;94.75;154085.94;5031943;28;20545;-84
2023/03/21 07:22:25;;;;;;;5.07;4.33;;;;;;;10.74;93.53;154118.34;5030681;28;20486;-76
2023/03/21 07:24:53;;;;;;;4.30;3.90;;;;;;;10.99;93.46;154183.09;5012903;28;20497;-76
2023/03/21 07:27:20;;;;;;;4.47;4.07;;;;;;;11.26;93.42;154250.44;5029816;28;20541;-77
2023/03/21 07:29:49;;;;;;;5.47;4.60;;;;;;;11.52;91.37;154317.81;5012557;28;20452;-77
2023/03/21 07:32:16;;;;;;;3.73;3.33;;;;;;;11.77;87.16;154382.66;5046226;28;20861;-76
2023/03/21 07:34:43;;;;;;;4.40;4.00;;;;;;;12.07;87.84;154459.16;5011465;28;20493;-76
2023/03/21 07:37:09;;;;;;;5.03;4.37;;;;;;;12.15;81.33;154479.91;5028290;28;20561;-76
2023/03/21 07:39:38;;;;;;;4.07;3.60;;;;;;;12.20;83.44;154494.13;5037636;28;20458;-77
2023/03/21 07:42:05;;;;;;;5.07;4.33;;;;;;;12.14;85.65;154477.28;5028276;28;20463;-78
2023/03/21 07:44:38;;;;;;;4.23;3.83;;;;;;;12.00;84.98;154442.28;5006642;28;20458;-77
2023/03/21 07:47:05;;;;;;;4.20;3.80;;;;;;;11.94;85.00;154426.72;5028385;28;20474;-77
2023/03/21 07:49:32;;;;;;;4.50;4.10;;;;;;;12.01;85.48;154443.59;5009633;28;20640;-77
2023/03/21 07:52:00;;;;;;;7.37;5.17;;;;;;;12.19;85.43;154490.25;5021045;28;20446;-77
2023/03/21 07:54:27;;;;;;;5.47;4.80;;;;;;;12.33;80.84;154526.56;5046722;28;20534;-77
2023/03/21 07:56:55;;;;;;;5.10;4.33;;;;;;;12.42;78.80;154548.56;5047167;28;20457;-77
2023/03/21 07:59:23;;;;;;;5.20;3.80;;;;;;;12.62;84.42;154600.47;5049518;28;20451;-77
2023/03/21 08:01:49;;;;;;;4.23;3.83;;;;;;;12.73;80.87;154629.00;5030194;28;21046;-77
2023/03/21 08:04:16;;;;;;;5.90;4.20;;;;;;;12.81;78.67;154649.75;5030152;28;20458;-77
2023/03/21 08:06:43;;;;;;;4.40;4.00;;;;;;;13.01;80.13;154701.63;5028787;28;20455;-77
2023/03/21 08:09:09;;;;;;;5.00;4.47;;;;;;;13.17;79.19;154743.22;5031270;28;20578;-76
2023/03/21 08:11:36;;;;;;;4.97;4.43;;;;;;;13.16;76.51;154740.59;5029411;28;20440;-76
2023/03/21 08:14:04;;;;;;;6.50;4.73;;;;;;;13.28;77.10;154771.75;5028007;28;20440;-76
2023/03/21 08:16:31;;;;;;;4.80;3.97;;;;;;;13.46;77.61;154815.84;5021843;28;20984;-76
2023/03/21 08:18:58;;;;;;;5.63;4.43;;;;;;;13.42;77.13;154806.81;5028838;28;20452;-76
2023/03/21 08:21:25;;;;;;;5.57;4.30;;;;;;;13.26;73.27;154766.53;5029509;28;21012;-76
2023/03/21 08:23:52;;;;;;;5.60;4.20;;;;;;;13.50;79.01;154826.25;5021235;28;20448;-76
2023/03/21 08:26:19;;;;;;;5.30;4.40;;;;;;;13.54;77.56;154836.63;5022450;28;20446;-76
2023/03/21 08:28:46;;;;;;;7.60;4.47;;;;;;;13.64;74.78;154862.56;5047696;28;20487;-76
2023/03/21 08:31:14;;;;;;;4.20;3.80;;;;;;;13.84;75.80;154914.50;5029502;28;20508;-76
2023/03/21 08:33:41;;;;;;;5.20;4.00;;;;;;;13.87;71.05;154923.56;5045108;28;20577;-76
2023/03/21 08:36:09;;;;;;;5.80;4.50;;;;;;;13.92;72.87;154936.59;5029755;28;20458;-76
2023/03/21 08:38:36;;;;;;;5.53;4.00;;;;;;;14.07;71.23;154974.22;5026702;28;20529;-76
2023/03/21 08:41:02;;;;;;;4.43;4.03;;;;;;;14.12;70.05;154985.88;5028977;28;20487;-76
2023/03/21 08:43:29;;;;;;;4.73;4.00;;;;;;;14.15;69.93;154995.00;5026771;28;21001;-77
2023/03/21 08:45:56;;;;;;;4.43;4.03;;;;;;;14.12;71.15;154987.19;5010928;28;20505;-77
2023/03/21 08:48:24;;;;;;;4.07;3.40;;;;;;;14.16;70.81;154996.31;5046392;28;20452;-76
2023/03/21 08:50:51;;;;;;;3.40;2.93;;;;;;;14.15;73.76;154995.00;5027270;28;21124;-76
2023/03/21 08:53:18;;;;;;;3.37;3.00;;;;;;;14.04;65.47;154966.41;5029111;28;20486;-76
2023/03/21 08:55:44;;;;;;;3.77;3.37;;;;;;;14.13;70.96;154988.50;5025389;28;20502;-76
2023/03/21 08:58:11;;;;;;;3.97;3.17;;;;;;;14.16;67.53;154996.31;5026194;28;20510;-76
2023/03/21 09:00:38;;;;;;;4.47;3.03;;;;;;;14.21;66.81;155010.59;5050293;28;20480;-76
2023/03/21 09:03:04;;;;;;;3.80;3.30;;;;;;;14.19;66.65;155004.09;5033121;28;20472;-76
2023/03/21 09:05:32;;;;;;;3.33;3.03;;;;;;;14.18;71.77;155002.78;5041183;28;20433;-76
2023/03/21 09:08:00;;;;;;;3.07;2.77;;;;;;;14.07;73.93;154974.22;5032431;28;20605;-76
2023/03/21 09:10:27;;;;;;;3.23;2.67;;;;;;;14.04;67.71;154967.72;5050968;28;20452;-76
2023/03/21 09:12:55;;;;;;;3.67;2.43;;;;;;;14.01;64.35;154958.63;5049708;28;20767;-76
2023/03/21 09:15:23;;;;;;;3.00;2.70;;;;;;;14.19;60.53;155005.34;5013912;28;20444;-76
2023/03/21 09:17:51;;;;;;;3.80;2.83;;;;;;;14.31;62.08;155036.59;5025887;28;21006;-76
2023/03/21 09:20:20;;;;;;;2.47;2.17;;;;;;;14.33;64.27;155041.78;5036234;28;20535;-76
2023/03/21 09:22:49;;;;;;;2.93;2.60;;;;;;;14.46;59.84;155075.53;5031503;28;20587;-76
2023/03/21 09:25:17;;;;;;;3.57;2.40;;;;;;;14.44;60.28;155070.38;5050367;28;20452;-76
2023/03/21 09:27:44;;;;;;;5.43;2.67;;;;;;;14.42;64.59;155065.19;5030825;28;20453;-76
2023/03/21 09:30:12;;;;;;;3.03;2.60;;;;;;;14.41;70.62;155062.56;5032227;28;20766;-76
2023/03/21 09:32:40;;;;;;;2.70;2.50;;;;;;;14.25;71.71;155019.66;5026972;28;20539;-76
2023/03/21 09:35:10;;;;;;;3.20;2.90;;;;;;;14.17;65.50;154998.88;5051934;28;20449;-77
2023/03/21 09:37:41;;;;;;;3.23;2.60;;;;;;;14.21;62.85;155010.59;5045734;28;20453;-77
2023/03/21 09:40:16;;;;;;;5.03;2.80;;;;;;;14.17;61.48;154998.88;5046847;28;20444;-77
2023/03/21 09:42:50;;;;;;;3.53;2.87;;;;;;;14.11;60.46;154984.59;5023740;28;20472;-77
2023/03/21 09:45:23;;;;;;;3.00;2.43;;;;;;;14.14;61.55;154992.38;5050257;28;20849;-77
2023/03/21 09:47:52;;;;;;;3.53;2.97;;;;;;;14.05;64.13;154969.03;5028199;28;20465;-77
2023/03/21 09:50:21;;;;;;;6.27;2.57;;;;;;;14.00;64.51;154956.06;5011261;28;20453;-77
2023/03/21 09:52:53;;;;;;;3.07;2.77;;;;;;;14.15;62.35;154995.00;5031337;28;20457;-77
2023/03/21 09:55:23;;;;;;;4.20;2.60;;;;;;;14.24;61.86;155018.38;5030218;28;20467;-77
2023/03/21 09:57:52;;;;;;;5.33;3.20;;;;;;;14.25;60.89;155020.94;5030984;28;20815;-77
2023/03/21 10:00:26;;;;;;;3.83;2.80;;;;;;;14.15;61.13;154993.69;5013558;28;20944;-77
2023/03/21 10:02:58;;;;;;;3.93;3.60;;;;;;;14.07;62.26;154974.22;5029942;28;20527;-77
2023/03/21 10:05:27;;;;;;;4.43;3.70;;;;;;;14.04;63.71;154967.72;5024511;28;20546;-77
2023/03/21 10:07:56;;;;;;;5.27;3.70;;;;;;;13.99;64.01;154953.44;5030468;28;20451;-77
2023/03/21 10:10:26;;;;;;;2.97;2.60;;;;;;;14.05;70.44;154969.03;5031889;28;20498;-77
2023/03/21 10:12:54;;;;;;;2.57;2.20;;;;;;;14.11;64.82;154983.31;5023495;28;20453;-78
2023/03/21 10:15:22;;;;;;;4.30;3.20;;;;;;;14.19;71.51;155004.09;5040636;28;21039;-77
2023/03/21 10:17:53;;;;;;;3.40;3.10;;;;;;;14.21;64.07;155010.59;5031839;28;20456;-77
2023/03/21 10:20:21;;;;;;;5.17;3.57;;;;;;;14.37;63.76;155052.19;5049257;28;20452;-77
2023/03/21 10:22:50;;;;;;;3.10;2.60;;;;;;;14.43;63.61;155067.75;5029919;28;20843;-77
2023/03/21 10:25:19;;;;;;;3.00;2.70;;;;;;;14.59;63.81;155109.31;5047265;28;20452;-77
2023/03/21 10:27:48;;;;;;;3.83;2.40;;;;;;;14.59;65.64;155109.31;5047807;28;20914;-77
2023/03/21 10:30:21;;;;;;;2.70;2.50;;;;;;;14.56;62.20;155101.50;5047833;28;20456;-77
2023/03/21 10:32:48;;;;;;;4.30;2.90;;;;;;;14.67;61.44;155128.78;5030008;28;21076;-77
2023/03/21 10:35:15;;;;;;;3.97;3.27;;;;;;;14.71;61.81;155139.22;5047866;28;21008;-77
2023/03/21 10:37:42;;;;;;;4.77;3.17;;;;;;;14.73;60.76;155143.09;5048556;28;20467;-77
2023/03/21 10:40:15;;;;;;;3.60;2.80;;;;;;;14.70;61.71;155136.59;5029509;28;20460;-77
2023/03/21 10:42:42;;;;;;;3.33;2.87;;;;;;;14.68;62.24;155130.09;5047951;28;20479;-77
2023/03/21 10:45:17;;;;;;;3.10;2.77;;;;;;;14.72;60.64;155140.50;5012775;28;20448;-77
2023/03/21 10:47:47;;;;;;;2.90;2.20;;;;;;;14.75;63.27;155148.25;5028366;28;20548;-77
2023/03/21 10:50:18;;;;;;;2.47;2.00;;;;;;;14.86;57.34;155176.84;5022374;28;20567;-78
2023/03/21 10:52:48;;;;;;;2.50;1.60;;;;;;;14.80;63.55;155161.31;5046790;28;20543;-77
2023/03/21 10:55:21;;;;;;;1.63;1.30;;;;;;;14.77;65.45;155154.81;5029501;28;20451;-78
2023/03/21 10:57:49;;;;;;;1.67;1.40;;;;;;;14.73;66.65;155143.09;5048534;28;20555;-77
2023/03/21 11:00:21;;;;;;;1.90;1.43;;;;;;;14.75;72.45;155148.25;5046709;28;20943;-78
2023/03/21 11:02:50;;;;;;;2.37;1.80;;;;;;;14.74;74.54;155147.00;5018630;28;20479;-77
2023/03/21 11:05:22;;;;;;;1.97;1.50;;;;;;;14.69;66.69;155132.72;5028900;28;20458;-78
2023/03/21 11:08:00;;;;;;;1.90;1.50;;;;;;;14.72;60.69;155140.50;5044094;28;20457;-77
2023/03/21 11:10:29;;;;;;;2.83;1.90;;;;;;;14.90;64.09;155188.56;5028645;28;20448;-77
2023/03/21 11:12:57;;;;;;;1.90;1.43;;;;;;;14.92;59.66;155192.47;5013218;28;20481;-78
2023/03/21 11:15:30;;;;;;;3.53;1.60;;;;;;;15.15;59.40;155252.22;5027900;28;20433;-78
2023/03/21 11:17:57;;;;;;;1.30;1.10;;;;;;;15.20;68.49;155265.19;5045521;28;20543;-77
2023/03/21 11:20:24;;;;;;;2.00;1.40;;;;;;;15.13;64.24;155247.03;5026715;28;20832;-78
2023/03/21 11:22:54;;;;;;;1.70;1.47;;;;;;;15.08;66.70;155234.03;5029890;28;20609;-78
2023/03/21 11:25:24;;;;;;;1.50;1.20;;;;;;;15.08;65.41;155235.34;5029407;28;20455;-78
2023/03/21 11:27:53;;;;;;;1.30;1.20;;;;;;;15.07;60.68;155232.72;5024235;28;20454;-78
2023/03/21 11:30:22;;;;;;;1.50;1.10;;;;;;;15.14;67.95;155249.66;5037988;28;20454;-78
2023/03/21 11:32:54;;;;;;;2.10;1.30;;;;;;;15.10;59.34;155239.22;5027831;28;20576;-78
2023/03/21 11:35:24;;;;;;;2.70;1.07;;;;;;;15.16;57.40;155256.13;5047048;28;20476;-77
2023/03/21 11:37:52;;;;;;;1.70;1.13;;;;;;;15.27;65.44;155283.44;5028537;28;20470;-78
2023/03/21 11:40:22;;;;;;;1.37;0.97;;;;;;;15.21;61.40;155267.81;5029304;28;21063;-78
2023/03/21 11:42:50;;;;;;;1.20;1.00;;;;;;;15.21;64.21;155269.13;5029061;28;20568;-78